Saturday, August 27, 2016
01:17 UTC
  |  Log In   |  Register Free
Airport Search:

Raton Municipal/Crews Field Airport
(KRTN)

Raton Municipal/Crews Field Airport Diagram
No Airport Diagram Available

FAA data valid effective Jul 21 2016 - Sep 15 2016 (unless otherwise noted).

 
 
 
 
 
 
 
 
 
 
 
 
 
 
Current Aviation Weather for KRTN

Weather Summary


The most recent METAR observation for RTN was updated at: 12:53 UTC
METAR for RTN is not available. Closest METAR is for
METAR

METAR KRTN 270053Z 18012KT 10SM CLR 19/09 A3016 RMK AO2 SLP145 T01890094

METAR KRTN 262353Z 17013KT 10SM CLR 20/10 A3016 RMK AO2 SLP140 60000 T02000100 10228 20194 55004

METAR KRTN 262253Z 17009G17KT 10SM FEW100 22/08 A3015 RMK AO2 SLP133 T02220083

METAR KTAD 270054Z 11009KT 10SM FEW110 21/08 A3011 RMK AO2 SLP128 T02110083

TAF for RTN is not available.
TAF
Sorry we do not have any TAF information for RTN
GlobalAir.com is loading additional information.
 Current Weather at RTN
68.0 F° (20.0 C°)

South winds at 15.0 mph
Pressure:
30.16 in
Humidity:
53%
Wind:
South at 15.0 mph
Dew Point:
50.0 F° (10.0 C°)
Visibility:
10.00 mi
RTN NOAA Radar




Find All Airport Services Find A Hotel Find A Rental Car Find A Golf Course Find A Restaurant $100 Hamburger



Airport Weather Forecast for KRTN

Translated METAR for KRTN (0053 UTC)
METAR:
KRTN 270053Z AUTO Raton Muni/Crews Field, Raton, NM (KRTN). Aug 27, 0053Z, Automated. Wind from 180° at 12 knots, 10 statute miles visibility, Clear Skies, Temperature 19°C, Dewpoint 9°C, Altimeter is 30.16. Remarks: automated station with precipitation discriminator sea level pressure 1014.5 hectopascals hourly temp 18.9°C dewpoint 9.4°C
Conditions at:
KRTN (Raton Muni/Crews Field, NM) observed 0053 UTC 26 August 2016
Temperature:
68.0 F° (20.0 C°)
Dewpoint:
not reported - refer to area weather report
Pressure:
30.16 Hg
Winds:
not reported
Visibility:
10.00
Ceiling:
at least 12,000 feet AGL
Clouds:
not reported - refer to area weather report
Remarks:
site is un-manned

Translated TAF for TAF for RTN is not available. Refer to local area forecast.
FBO's on the Field
FBO Company Facility Photos Services Transportation Aviation Fuel Prices: Prices include tax
Catering Weather Repair Courtesy Rental Type 100LL JetA JetA+ MOGAS 8087
 
Express Aviation Services

This FBO has not yet been rated
FS:Phillips 66
Last Updated: Jul-19
Login to update fuel prices
SS:
Contact Express Aviation ServicesMore FBO Information
 
Add another FBO Facility Photos Catering Weather Repair Courtesy Rental Type 100LL JetA JetA+ MOGAS 8087
Services Transportation Aviation Fuel Prices: Prices include tax


model-print
model-print
model-print
model-print